Time Latitude Longitude Accuracy (66% radius in meters) Altitude (meters) Speed (km/hour) Bearing (degrees) Battery (%) GPS flag
11:40:42 57.204558 60.120903 0 0 0 0 1 delete
11:40:39 57.204540 60.120885 0 0 0 0 1 delete
11:40:37 57.204517 60.120924 0 0 0 0 1 delete
11:40:36 57.204509 60.120952 0 0 0 0 1 delete
11:40:34 57.204494 60.120989 0 0 0 0 1 delete
11:40:33 57.204493 60.121016 0 0 0 0 1 delete
11:40:31 57.204444 60.121059 0 0 0 0 1 delete
11:40:29 57.204427 60.121096 0 0 0 0 1 delete
11:40:26 57.204416 60.121126 0 0 0 0 1 delete
11:40:23 57.204429 60.121149 0 0 0 0 1 delete
11:40:20 57.204447 60.121172 0 0 0 0 1 delete
11:40:18 57.204465 60.121189 0 0 0 0 1 delete
11:40:16 57.204490 60.121210 0 0 0 0 1 delete
11:40:14 57.204522 60.121220 0 0 0 0 1 delete
11:40:13 57.204539 60.121211 0 0 0 0 1 delete
11:40:12 57.204562 60.121198 0 0 0 0 1 delete
11:40:11 57.204587 60.121192 0 0 0 0 1 delete
11:40:09 57.204612 60.121213 0 0 0 0 1 delete
11:40:06 57.204613 60.121263 0 0 0 0 1 delete
11:40:04 57.204587 60.121255 0 0 0 0 1 delete
11:40:02 57.204570 60.121235 0 0 0 0 1 delete
11:40:00 57.204555 60.121195 0 0 0 0 1 delete
11:39:59 57.204548 60.121165 0 0 0 0 1 delete
11:39:58 57.204540 60.121133 0 0 0 0 1 delete
11:39:57 57.204532 60.121102 0 0 0 0 1 delete
11:39:55 57.204519 60.121074 0 0 0 0 1 delete
11:39:50 57.204516 60.121115 0 0 0 0 1 delete
11:39:47 57.204512 60.121082 0 0 0 0 1 delete
11:39:44 57.204506 60.121044 0 0 0 0 1 delete
11:39:41 57.204502 60.121002 0 0 0 0 1 delete
11:39:38 57.204508 60.120965 0 0 0 0 1 delete
11:39:36 57.204524 60.120945 0 0 0 0 1 delete
11:39:33 57.204540 60.120914 0 0 0 0 1 delete
11:39:29 57.204551 60.120875 0 0 0 0 1 delete
11:39:21 57.204562 60.120847 0 0 0 0 1 delete
11:38:58 57.204552 60.120812 0 0 0 0 1 delete
11:38:56 57.204535 60.120777 0 0 0 0 1 delete
11:38:55 57.204521 60.120748 0 0 0 0 1 delete
11:38:54 57.204506 60.120715 0 0 0 0 1 delete
11:38:53 57.204491 60.120673 0 0 0 0 1 delete
11:38:52 57.204478 60.120621 0 0 0 0 1 delete
11:38:51 57.204471 60.120557 0 0 0 0 1 delete
11:38:50 57.204466 60.120493 0 0 0 0 1 delete
11:38:49 57.204466 60.120425 0 0 0 0 1 delete
11:38:48 57.204469 60.120359 0 0 0 0 1 delete
11:38:47 57.204473 60.120296 0 0 0 0 1 delete
11:38:46 57.204477 60.120237 0 0 0 0 1 delete
11:38:45 57.204479 60.120183 0 0 0 0 1 delete
11:38:44 57.204477 60.120135 0 0 0 0 1 delete
11:38:43 57.204473 60.120085 0 0 0 0 1 delete